sensor_id;sensor_type;location;lat;lon;timestamp;temperature;humidity
14053;DHT22;7101;51.600;7.310;2023-03-14T00:00:00;11.30;99.90
14053;DHT22;7101;51.600;7.310;2023-03-14T00:02:31;11.20;99.90
14053;DHT22;7101;51.600;7.310;2023-03-14T00:04:58;11.20;99.90
14053;DHT22;7101;51.600;7.310;2023-03-14T00:07:25;11.20;99.90
14053;DHT22;7101;51.600;7.310;2023-03-14T00:09:52;11.20;99.90
14053;DHT22;7101;51.600;7.310;2023-03-14T00:12:19;11.20;99.90
14053;DHT22;7101;51.600;7.310;2023-03-14T00:14:46;11.20;99.90
14053;DHT22;7101;51.600;7.310;2023-03-14T00:17:14;11.20;99.90
14053;DHT22;7101;51.600;7.310;2023-03-14T00:19:41;11.20;99.90
14053;DHT22;7101;51.600;7.310;2023-03-14T00:22:08;11.20;99.90
14053;DHT22;7101;51.600;7.310;2023-03-14T00:24:35;11.20;99.90
14053;DHT22;7101;51.600;7.310;2023-03-14T00:27:02;11.20;99.90
14053;DHT22;7101;51.600;7.310;2023-03-14T00:29:28;11.10;99.90
14053;DHT22;7101;51.600;7.310;2023-03-14T00:31:55;11.00;99.90
14053;DHT22;7101;51.600;7.310;2023-03-14T00:34:28;10.90;99.90
14053;DHT22;7101;51.600;7.310;2023-03-14T00:36:55;10.90;99.90
14053;DHT22;7101;51.600;7.310;2023-03-14T00:39:22;10.90;99.90
14053;DHT22;7101;51.600;7.310;2023-03-14T00:41:49;10.90;99.90
14053;DHT22;7101;51.600;7.310;2023-03-14T00:44:16;10.90;99.90
14053;DHT22;7101;51.600;7.310;2023-03-14T00:46:43;11.00;99.90
14053;DHT22;7101;51.600;7.310;2023-03-14T00:49:10;11.00;99.90
14053;DHT22;7101;51.600;7.310;2023-03-14T00:51:38;11.20;99.90
14053;DHT22;7101;51.600;7.310;2023-03-14T00:54:05;11.30;99.90
14053;DHT22;7101;51.600;7.310;2023-03-14T00:56:31;11.40;99.90
14053;DHT22;7101;51.600;7.310;2023-03-14T00:58:58;11.50;99.90
14053;DHT22;7101;51.600;7.310;2023-03-14T01:01:25;11.50;99.90
14053;DHT22;7101;51.600;7.310;2023-03-14T01:03:53;11.50;99.90
14053;DHT22;7101;51.600;7.310;2023-03-14T01:06:22;11.50;99.90
14053;DHT22;7101;51.600;7.310;2023-03-14T01:08:52;11.50;99.90
14053;DHT22;7101;51.600;7.310;2023-03-14T01:11:22;11.10;1.00
14053;DHT22;7101;51.600;7.310;2023-03-14T01:13:49;10.70;1.00
14053;DHT22;7101;51.600;7.310;2023-03-14T01:16:17;10.50;1.00
14053;DHT22;7101;51.600;7.310;2023-03-14T01:18:45;10.30;1.00
14053;DHT22;7101;51.600;7.310;2023-03-14T01:21:14;10.10;56.40
14053;DHT22;7101;51.600;7.310;2023-03-14T01:23:42;10.00;99.90
14053;DHT22;7101;51.600;7.310;2023-03-14T01:26:12;9.90;99.90
14053;DHT22;7101;51.600;7.310;2023-03-14T01:28:39;9.70;99.90
14053;DHT22;7101;51.600;7.310;2023-03-14T01:31:08;9.70;99.90
14053;DHT22;7101;51.600;7.310;2023-03-14T01:33:35;9.60;99.90
14053;DHT22;7101;51.600;7.310;2023-03-14T01:36:02;9.60;99.90
14053;DHT22;7101;51.600;7.310;2023-03-14T01:38:29;9.60;99.90
14053;DHT22;7101;51.600;7.310;2023-03-14T01:40:56;9.50;99.90
14053;DHT22;7101;51.600;7.310;2023-03-14T01:43:24;9.40;99.90
14053;DHT22;7101;51.600;7.310;2023-03-14T01:46:20;9.40;99.90
14053;DHT22;7101;51.600;7.310;2023-03-14T01:48:52;9.40;99.90
14053;DHT22;7101;51.600;7.310;2023-03-14T01:51:24;9.40;99.90
14053;DHT22;7101;51.600;7.310;2023-03-14T01:53:54;9.40;99.90
14053;DHT22;7101;51.600;7.310;2023-03-14T01:56:21;9.40;99.90
14053;DHT22;7101;51.600;7.310;2023-03-14T01:58:52;9.40;99.90
14053;DHT22;7101;51.600;7.310;2023-03-14T02:01:21;9.40;99.90
14053;DHT22;7101;51.600;7.310;2023-03-14T02:03:52;9.40;99.90
14053;DHT22;7101;51.600;7.310;2023-03-14T02:06:24;9.40;99.90
14053;DHT22;7101;51.600;7.310;2023-03-14T02:08:53;9.30;99.90
14053;DHT22;7101;51.600;7.310;2023-03-14T02:11:21;9.40;99.90
14053;DHT22;7101;51.600;7.310;2023-03-14T02:13:49;9.40;99.90
14053;DHT22;7101;51.600;7.310;2023-03-14T02:16:16;9.30;99.90
14053;DHT22;7101;51.600;7.310;2023-03-14T02:18:43;9.20;99.90
14053;DHT22;7101;51.600;7.310;2023-03-14T02:21:15;9.20;99.90
14053;DHT22;7101;51.600;7.310;2023-03-14T02:23:53;9.30;99.90
14053;DHT22;7101;51.600;7.310;2023-03-14T02:26:24;9.30;99.90
14053;DHT22;7101;51.600;7.310;2023-03-14T02:28:55;9.40;99.90
14053;DHT22;7101;51.600;7.310;2023-03-14T02:31:22;9.40;99.90
14053;DHT22;7101;51.600;7.310;2023-03-14T02:33:50;9.30;99.90
14053;DHT22;7101;51.600;7.310;2023-03-14T02:36:19;9.40;99.90
14053;DHT22;7101;51.600;7.310;2023-03-14T02:38:51;9.40;99.90
14053;DHT22;7101;51.600;7.310;2023-03-14T02:41:20;9.40;99.90
14053;DHT22;7101;51.600;7.310;2023-03-14T02:43:47;9.40;99.90
14053;DHT22;7101;51.600;7.310;2023-03-14T02:46:17;9.50;99.90
14053;DHT22;7101;51.600;7.310;2023-03-14T02:48:48;9.50;99.90
14053;DHT22;7101;51.600;7.310;2023-03-14T02:51:16;9.50;99.90
14053;DHT22;7101;51.600;7.310;2023-03-14T02:53:43;9.50;99.90
14053;DHT22;7101;51.600;7.310;2023-03-14T02:56:10;9.60;99.90
14053;DHT22;7101;51.600;7.310;2023-03-14T02:58:38;9.60;99.90
14053;DHT22;7101;51.600;7.310;2023-03-14T03:01:05;9.60;99.90
14053;DHT22;7101;51.600;7.310;2023-03-14T03:03:35;9.60;99.90
14053;DHT22;7101;51.600;7.310;2023-03-14T03:06:02;9.60;99.90
14053;DHT22;7101;51.600;7.310;2023-03-14T03:08:29;9.70;99.90
14053;DHT22;7101;51.600;7.310;2023-03-14T03:10:58;9.70;99.90
14053;DHT22;7101;51.600;7.310;2023-03-14T03:13:25;9.60;99.90
14053;DHT22;7101;51.600;7.310;2023-03-14T03:15:52;9.60;99.90
14053;DHT22;7101;51.600;7.310;2023-03-14T03:18:19;9.60;99.90
14053;DHT22;7101;51.600;7.310;2023-03-14T03:20:48;9.50;98.60
14053;DHT22;7101;51.600;7.310;2023-03-14T03:23:14;9.40;89.00
14053;DHT22;7101;51.600;7.310;2023-03-14T03:25:41;9.40;89.20
14053;DHT22;7101;51.600;7.310;2023-03-14T03:28:09;9.30;83.30
14053;DHT22;7101;51.600;7.310;2023-03-14T03:30:39;9.30;57.10
14053;DHT22;7101;51.600;7.310;2023-03-14T03:33:07;9.30;51.80
14053;DHT22;7101;51.600;7.310;2023-03-14T03:35:34;9.30;46.10
14053;DHT22;7101;51.600;7.310;2023-03-14T03:38:02;9.20;38.80
14053;DHT22;7101;51.600;7.310;2023-03-14T03:40:29;9.20;37.90
14053;DHT22;7101;51.600;7.310;2023-03-14T03:42:56;9.20;15.10
14053;DHT22;7101;51.600;7.310;2023-03-14T03:45:23;9.20;43.60
14053;DHT22;7101;51.600;7.310;2023-03-14T03:47:50;9.30;27.30
14053;DHT22;7101;51.600;7.310;2023-03-14T03:50:17;9.30;35.80
14053;DHT22;7101;51.600;7.310;2023-03-14T03:52:44;9.30;34.80
14053;DHT22;7101;51.600;7.310;2023-03-14T03:55:12;9.40;29.10
14053;DHT22;7101;51.600;7.310;2023-03-14T03:57:39;9.50;17.00
14053;DHT22;7101;51.600;7.310;2023-03-14T04:00:07;9.50;1.00
14053;DHT22;7101;51.600;7.310;2023-03-14T04:02:37;9.60;1.00
14053;DHT22;7101;51.600;7.310;2023-03-14T04:05:04;9.50;1.00
14053;DHT22;7101;51.600;7.310;2023-03-14T04:07:31;9.50;1.00
14053;DHT22;7101;51.600;7.310;2023-03-14T04:09:58;9.50;1.00
14053;DHT22;7101;51.600;7.310;2023-03-14T04:12:28;9.60;1.00
14053;DHT22;7101;51.600;7.310;2023-03-14T04:14:55;9.70;1.00
14053;DHT22;7101;51.600;7.310;2023-03-14T04:17:22;9.80;1.00
14053;DHT22;7101;51.600;7.310;2023-03-14T04:19:49;9.80;1.00
14053;DHT22;7101;51.600;7.310;2023-03-14T04:22:18;9.80;18.80
14053;DHT22;7101;51.600;7.310;2023-03-14T04:24:45;9.70;16.90
14053;DHT22;7101;51.600;7.310;2023-03-14T04:27:12;9.70;15.20
14053;DHT22;7101;51.600;7.310;2023-03-14T04:29:41;9.70;25.50
14053;DHT22;7101;51.600;7.310;2023-03-14T04:32:08;9.70;7.50
14053;DHT22;7101;51.600;7.310;2023-03-14T04:34:35;9.60;25.20
14053;DHT22;7101;51.600;7.310;2023-03-14T04:37:02;9.60;13.10
14053;DHT22;7101;51.600;7.310;2023-03-14T04:39:29;9.60;4.60
14053;DHT22;7101;51.600;7.310;2023-03-14T04:41:57;9.60;1.00
14053;DHT22;7101;51.600;7.310;2023-03-14T04:44:24;9.70;1.00
14053;DHT22;7101;51.600;7.310;2023-03-14T04:46:52;9.70;1.00
14053;DHT22;7101;51.600;7.310;2023-03-14T04:49:19;9.60;1.00
14053;DHT22;7101;51.600;7.310;2023-03-14T04:51:46;9.60;1.00
14053;DHT22;7101;51.600;7.310;2023-03-14T04:54:13;9.50;1.00
14053;DHT22;7101;51.600;7.310;2023-03-14T04:56:40;9.40;35.20
14053;DHT22;7101;51.600;7.310;2023-03-14T04:59:07;9.30;99.90
14053;DHT22;7101;51.600;7.310;2023-03-14T05:01:34;9.20;99.90
14053;DHT22;7101;51.600;7.310;2023-03-14T05:04:05;9.10;99.90
14053;DHT22;7101;51.600;7.310;2023-03-14T05:06:32;9.00;99.90
14053;DHT22;7101;51.600;7.310;2023-03-14T05:09:00;8.90;99.90
14053;DHT22;7101;51.600;7.310;2023-03-14T05:11:27;8.80;99.90
14053;DHT22;7101;51.600;7.310;2023-03-14T05:13:55;8.80;99.90
14053;DHT22;7101;51.600;7.310;2023-03-14T05:16:21;8.70;99.90
14053;DHT22;7101;51.600;7.310;2023-03-14T05:18:48;8.70;99.90
14053;DHT22;7101;51.600;7.310;2023-03-14T05:21:16;8.60;99.90
14053;DHT22;7101;51.600;7.310;2023-03-14T05:23:44;8.60;99.90
14053;DHT22;7101;51.600;7.310;2023-03-14T05:26:11;8.50;99.90
14053;DHT22;7101;51.600;7.310;2023-03-14T05:28:38;8.50;99.90
14053;DHT22;7101;51.600;7.310;2023-03-14T05:31:06;8.50;99.90
14053;DHT22;7101;51.600;7.310;2023-03-14T05:33:34;8.50;99.90
14053;DHT22;7101;51.600;7.310;2023-03-14T05:36:00;8.50;99.90
14053;DHT22;7101;51.600;7.310;2023-03-14T05:38:28;8.50;99.90
14053;DHT22;7101;51.600;7.310;2023-03-14T05:40:55;8.50;99.90
14053;DHT22;7101;51.600;7.310;2023-03-14T05:43:22;8.50;99.90
14053;DHT22;7101;51.600;7.310;2023-03-14T05:45:49;8.50;99.90
14053;DHT22;7101;51.600;7.310;2023-03-14T05:48:16;8.50;99.90
14053;DHT22;7101;51.600;7.310;2023-03-14T05:50:44;8.50;99.90
14053;DHT22;7101;51.600;7.310;2023-03-14T05:53:10;8.50;99.90
14053;DHT22;7101;51.600;7.310;2023-03-14T05:55:39;8.50;99.90
14053;DHT22;7101;51.600;7.310;2023-03-14T05:58:05;8.50;99.90
14053;DHT22;7101;51.600;7.310;2023-03-14T06:00:32;8.50;99.90
14053;DHT22;7101;51.600;7.310;2023-03-14T06:02:59;8.50;99.90
14053;DHT22;7101;51.600;7.310;2023-03-14T06:05:26;8.50;99.90
14053;DHT22;7101;51.600;7.310;2023-03-14T06:07:53;8.50;99.90
14053;DHT22;7101;51.600;7.310;2023-03-14T06:10:20;8.50;99.90
14053;DHT22;7101;51.600;7.310;2023-03-14T06:12:48;8.50;99.90
14053;DHT22;7101;51.600;7.310;2023-03-14T06:15:15;8.50;99.90
14053;DHT22;7101;51.600;7.310;2023-03-14T06:17:41;8.50;99.90
14053;DHT22;7101;51.600;7.310;2023-03-14T06:20:09;8.60;99.90
14053;DHT22;7101;51.600;7.310;2023-03-14T06:22:36;8.60;99.90
14053;DHT22;7101;51.600;7.310;2023-03-14T06:25:05;8.60;99.90
14053;DHT22;7101;51.600;7.310;2023-03-14T06:27:33;8.70;99.90
14053;DHT22;7101;51.600;7.310;2023-03-14T06:30:01;8.80;99.90
14053;DHT22;7101;51.600;7.310;2023-03-14T06:32:30;8.70;99.90
14053;DHT22;7101;51.600;7.310;2023-03-14T06:34:57;8.80;99.90
14053;DHT22;7101;51.600;7.310;2023-03-14T06:37:26;8.80;99.90
14053;DHT22;7101;51.600;7.310;2023-03-14T06:39:54;8.90;99.90
14053;DHT22;7101;51.600;7.310;2023-03-14T06:42:21;8.90;99.90
14053;DHT22;7101;51.600;7.310;2023-03-14T06:44:48;8.90;99.90
14053;DHT22;7101;51.600;7.310;2023-03-14T06:47:17;9.00;99.90
14053;DHT22;7101;51.600;7.310;2023-03-14T06:49:43;9.00;99.90
14053;DHT22;7101;51.600;7.310;2023-03-14T06:52:13;9.10;99.90
14053;DHT22;7101;51.600;7.310;2023-03-14T06:54:40;9.10;99.90
14053;DHT22;7101;51.600;7.310;2023-03-14T06:57:06;9.20;99.90
14053;DHT22;7101;51.600;7.310;2023-03-14T06:59:33;9.30;99.90
14053;DHT22;7101;51.600;7.310;2023-03-14T07:02:00;9.40;99.90
14053;DHT22;7101;51.600;7.310;2023-03-14T07:04:28;9.40;99.90
14053;DHT22;7101;51.600;7.310;2023-03-14T07:06:55;9.50;99.90
14053;DHT22;7101;51.600;7.310;2023-03-14T07:09:22;9.70;99.90
14053;DHT22;7101;51.600;7.310;2023-03-14T07:11:49;9.60;99.90
14053;DHT22;7101;51.600;7.310;2023-03-14T07:14:16;9.70;99.90
14053;DHT22;7101;51.600;7.310;2023-03-14T07:16:43;9.60;99.90
14053;DHT22;7101;51.600;7.310;2023-03-14T07:19:10;9.70;99.90
14053;DHT22;7101;51.600;7.310;2023-03-14T07:21:39;9.80;99.90
14053;DHT22;7101;51.600;7.310;2023-03-14T07:24:06;10.20;99.90
14053;DHT22;7101;51.600;7.310;2023-03-14T07:26:33;10.20;99.90
14053;DHT22;7101;51.600;7.310;2023-03-14T07:29:00;10.20;99.90
14053;DHT22;7101;51.600;7.310;2023-03-14T07:31:29;10.10;99.90
14053;DHT22;7101;51.600;7.310;2023-03-14T07:33:55;10.10;99.90
14053;DHT22;7101;51.600;7.310;2023-03-14T07:36:22;10.10;99.90
14053;DHT22;7101;51.600;7.310;2023-03-14T07:38:51;10.10;99.90
14053;DHT22;7101;51.600;7.310;2023-03-14T07:41:18;10.00;99.90
14053;DHT22;7101;51.600;7.310;2023-03-14T07:43:46;10.00;99.90
14053;DHT22;7101;51.600;7.310;2023-03-14T07:46:13;10.20;99.90
14053;DHT22;7101;51.600;7.310;2023-03-14T07:48:39;10.30;99.90
14053;DHT22;7101;51.600;7.310;2023-03-14T07:51:07;10.30;99.90
14053;DHT22;7101;51.600;7.310;2023-03-14T07:53:33;10.50;99.90
14053;DHT22;7101;51.600;7.310;2023-03-14T07:56:01;10.50;99.90
14053;DHT22;7101;51.600;7.310;2023-03-14T07:58:28;10.60;99.90
14053;DHT22;7101;51.600;7.310;2023-03-14T08:00:55;10.60;99.90
14053;DHT22;7101;51.600;7.310;2023-03-14T08:03:22;10.70;99.90
14053;DHT22;7101;51.600;7.310;2023-03-14T08:05:50;10.60;99.90
14053;DHT22;7101;51.600;7.310;2023-03-14T08:08:17;10.60;99.90
14053;DHT22;7101;51.600;7.310;2023-03-14T08:10:44;10.50;99.90
14053;DHT22;7101;51.600;7.310;2023-03-14T08:13:13;10.30;99.90
14053;DHT22;7101;51.600;7.310;2023-03-14T08:15:40;10.40;99.90
14053;DHT22;7101;51.600;7.310;2023-03-14T08:18:07;10.40;99.90
14053;DHT22;7101;51.600;7.310;2023-03-14T08:20:35;10.40;99.90
14053;DHT22;7101;51.600;7.310;2023-03-14T08:23:02;10.40;99.90
14053;DHT22;7101;51.600;7.310;2023-03-14T08:25:29;10.30;99.90
14053;DHT22;7101;51.600;7.310;2023-03-14T08:27:56;10.40;99.90
14053;DHT22;7101;51.600;7.310;2023-03-14T08:30:24;10.40;99.90
14053;DHT22;7101;51.600;7.310;2023-03-14T08:32:51;10.30;99.90
14053;DHT22;7101;51.600;7.310;2023-03-14T08:35:20;10.50;99.90
14053;DHT22;7101;51.600;7.310;2023-03-14T08:37:47;10.50;99.90
14053;DHT22;7101;51.600;7.310;2023-03-14T08:40:14;10.70;99.90
14053;DHT22;7101;51.600;7.310;2023-03-14T08:42:42;10.80;99.90
14053;DHT22;7101;51.600;7.310;2023-03-14T08:45:11;10.70;99.90
14053;DHT22;7101;51.600;7.310;2023-03-14T08:47:40;10.70;99.90
14053;DHT22;7101;51.600;7.310;2023-03-14T08:50:08;10.70;99.90
14053;DHT22;7101;51.600;7.310;2023-03-14T08:52:38;10.70;99.90
14053;DHT22;7101;51.600;7.310;2023-03-14T08:55:07;10.80;99.90
14053;DHT22;7101;51.600;7.310;2023-03-14T08:57:34;10.90;99.90
14053;DHT22;7101;51.600;7.310;2023-03-14T09:00:03;11.10;99.90
14053;DHT22;7101;51.600;7.310;2023-03-14T09:02:34;11.20;99.90
14053;DHT22;7101;51.600;7.310;2023-03-14T09:05:03;11.30;99.90
14053;DHT22;7101;51.600;7.310;2023-03-14T09:07:29;11.30;99.90
14053;DHT22;7101;51.600;7.310;2023-03-14T09:09:56;11.30;99.90
14053;DHT22;7101;51.600;7.310;2023-03-14T09:12:23;11.20;99.90
14053;DHT22;7101;51.600;7.310;2023-03-14T09:14:50;11.20;99.90
14053;DHT22;7101;51.600;7.310;2023-03-14T09:17:17;11.10;99.90
14053;DHT22;7101;51.600;7.310;2023-03-14T09:19:43;11.00;99.90
14053;DHT22;7101;51.600;7.310;2023-03-14T09:22:12;11.10;99.90
14053;DHT22;7101;51.600;7.310;2023-03-14T09:24:40;10.90;99.90
14053;DHT22;7101;51.600;7.310;2023-03-14T09:27:07;10.90;99.90
14053;DHT22;7101;51.600;7.310;2023-03-14T09:29:34;10.90;99.90
14053;DHT22;7101;51.600;7.310;2023-03-14T09:32:01;10.70;99.90
14053;DHT22;7101;51.600;7.310;2023-03-14T09:34:29;10.70;99.90
14053;DHT22;7101;51.600;7.310;2023-03-14T09:36:56;10.60;99.90
14053;DHT22;7101;51.600;7.310;2023-03-14T09:39:25;10.40;99.90
14053;DHT22;7101;51.600;7.310;2023-03-14T09:41:53;10.10;99.90
14053;DHT22;7101;51.600;7.310;2023-03-14T09:44:25;9.60;99.90
14053;DHT22;7101;51.600;7.310;2023-03-14T09:46:54;9.30;99.90
14053;DHT22;7101;51.600;7.310;2023-03-14T09:49:26;8.90;99.90
14053;DHT22;7101;51.600;7.310;2023-03-14T09:51:56;8.80;99.90
14053;DHT22;7101;51.600;7.310;2023-03-14T09:54:31;8.70;99.90
14053;DHT22;7101;51.600;7.310;2023-03-14T09:56:59;8.70;99.90
14053;DHT22;7101;51.600;7.310;2023-03-14T09:59:27;8.70;99.90
14053;DHT22;7101;51.600;7.310;2023-03-14T10:01:57;8.80;99.90
14053;DHT22;7101;51.600;7.310;2023-03-14T10:04:25;8.70;99.90
14053;DHT22;7101;51.600;7.310;2023-03-14T10:06:52;8.80;99.90
14053;DHT22;7101;51.600;7.310;2023-03-14T10:09:21;8.90;99.90
14053;DHT22;7101;51.600;7.310;2023-03-14T10:11:54;8.90;99.90
14053;DHT22;7101;51.600;7.310;2023-03-14T10:14:30;8.80;99.90
14053;DHT22;7101;51.600;7.310;2023-03-14T10:17:05;8.70;99.90
14053;DHT22;7101;51.600;7.310;2023-03-14T10:19:33;8.40;99.90
14053;DHT22;7101;51.600;7.310;2023-03-14T10:22:01;8.30;99.90
14053;DHT22;7101;51.600;7.310;2023-03-14T10:24:30;8.30;99.90
14053;DHT22;7101;51.600;7.310;2023-03-14T10:27:00;8.20;99.90
14053;DHT22;7101;51.600;7.310;2023-03-14T10:29:28;8.20;99.90
14053;DHT22;7101;51.600;7.310;2023-03-14T10:31:59;8.20;99.90
14053;DHT22;7101;51.600;7.310;2023-03-14T10:34:29;8.20;99.90
14053;DHT22;7101;51.600;7.310;2023-03-14T10:36:58;8.10;99.90
14053;DHT22;7101;51.600;7.310;2023-03-14T10:39:30;7.90;99.90
14053;DHT22;7101;51.600;7.310;2023-03-14T10:42:06;7.90;99.90
14053;DHT22;7101;51.600;7.310;2023-03-14T10:44:39;7.90;99.90
14053;DHT22;7101;51.600;7.310;2023-03-14T10:47:12;7.90;99.90
14053;DHT22;7101;51.600;7.310;2023-03-14T10:49:41;8.10;99.90
14053;DHT22;7101;51.600;7.310;2023-03-14T10:52:17;8.00;99.90
14053;DHT22;7101;51.600;7.310;2023-03-14T10:54:49;7.90;99.90
14053;DHT22;7101;51.600;7.310;2023-03-14T10:57:21;7.80;99.90
14053;DHT22;7101;51.600;7.310;2023-03-14T10:59:48;7.70;99.90
14053;DHT22;7101;51.600;7.310;2023-03-14T11:02:30;7.60;99.90
14053;DHT22;7101;51.600;7.310;2023-03-14T11:05:16;7.70;99.90
14053;DHT22;7101;51.600;7.310;2023-03-14T11:07:47;7.70;99.90
14053;DHT22;7101;51.600;7.310;2023-03-14T11:10:19;7.50;71.60
14053;DHT22;7101;51.600;7.310;2023-03-14T11:12:57;7.50;99.20
14053;DHT22;7101;51.600;7.310;2023-03-14T11:15:31;7.30;11.00
14053;DHT22;7101;51.600;7.310;2023-03-14T11:18:18;7.30;1.00
14053;DHT22;7101;51.600;7.310;2023-03-14T11:20:50;7.10;1.00
14053;DHT22;7101;51.600;7.310;2023-03-14T11:23:22;7.20;5.40
14053;DHT22;7101;51.600;7.310;2023-03-14T11:25:56;7.40;1.00
14053;DHT22;7101;51.600;7.310;2023-03-14T11:28:32;7.50;1.00
14053;DHT22;7101;51.600;7.310;2023-03-14T11:31:10;7.30;1.00
14053;DHT22;7101;51.600;7.310;2023-03-14T11:33:46;7.20;1.00
14053;DHT22;7101;51.600;7.310;2023-03-14T11:36:19;7.10;1.00
14053;DHT22;7101;51.600;7.310;2023-03-14T11:38:48;7.20;1.00
14053;DHT22;7101;51.600;7.310;2023-03-14T11:41:18;7.10;1.00
14053;DHT22;7101;51.600;7.310;2023-03-14T11:43:50;6.90;1.00
14053;DHT22;7101;51.600;7.310;2023-03-14T11:46:23;6.80;1.00
14053;DHT22;7101;51.600;7.310;2023-03-14T11:48:59;6.70;1.00
14053;DHT22;7101;51.600;7.310;2023-03-14T11:51:31;6.50;1.00
14053;DHT22;7101;51.600;7.310;2023-03-14T11:54:02;6.70;1.00
14053;DHT22;7101;51.600;7.310;2023-03-14T11:56:39;7.00;1.00
14053;DHT22;7101;51.600;7.310;2023-03-14T11:59:14;7.00;1.00
14053;DHT22;7101;51.600;7.310;2023-03-14T12:01:53;6.90;1.00
14053;DHT22;7101;51.600;7.310;2023-03-14T12:04:39;6.80;1.00
14053;DHT22;7101;51.600;7.310;2023-03-14T12:07:14;6.70;1.00
14053;DHT22;7101;51.600;7.310;2023-03-14T12:09:44;6.70;1.00
14053;DHT22;7101;51.600;7.310;2023-03-14T12:12:14;6.80;1.00
14053;DHT22;7101;51.600;7.310;2023-03-14T12:14:52;6.80;1.00
14053;DHT22;7101;51.600;7.310;2023-03-14T12:17:23;7.10;1.00
14053;DHT22;7101;51.600;7.310;2023-03-14T12:20:01;7.20;1.00
14053;DHT22;7101;51.600;7.310;2023-03-14T12:22:33;7.50;1.00
14053;DHT22;7101;51.600;7.310;2023-03-14T12:25:05;8.00;1.00
14053;DHT22;7101;51.600;7.310;2023-03-14T12:27:48;8.40;1.00
14053;DHT22;7101;51.600;7.310;2023-03-14T12:30:27;8.50;1.00
14053;DHT22;7101;51.600;7.310;2023-03-14T12:36:20;8.50;1.00
14053;DHT22;7101;51.600;7.310;2023-03-14T12:39:16;8.20;1.00
14053;DHT22;7101;51.600;7.310;2023-03-14T12:41:51;8.30;1.00
14053;DHT22;7101;51.600;7.310;2023-03-14T12:44:41;8.50;1.00
14053;DHT22;7101;51.600;7.310;2023-03-14T12:50:42;8.40;1.00
14053;DHT22;7101;51.600;7.310;2023-03-14T12:53:55;8.20;1.00
14053;DHT22;7101;51.600;7.310;2023-03-14T12:56:27;7.50;1.00
14053;DHT22;7101;51.600;7.310;2023-03-14T12:59:19;7.20;1.00
14053;DHT22;7101;51.600;7.310;2023-03-14T13:01:55;7.10;1.00
14053;DHT22;7101;51.600;7.310;2023-03-14T13:04:28;6.90;1.00
14053;DHT22;7101;51.600;7.310;2023-03-14T13:06:58;6.80;1.00
14053;DHT22;7101;51.600;7.310;2023-03-14T13:12:51;7.00;1.00
14053;DHT22;7101;51.600;7.310;2023-03-14T13:15:24;7.00;1.00
14053;DHT22;7101;51.600;7.310;2023-03-14T13:17:55;7.20;1.00
14053;DHT22;7101;51.600;7.310;2023-03-14T13:20:28;7.20;1.00
14053;DHT22;7101;51.600;7.310;2023-03-14T13:22:58;7.20;1.00
14053;DHT22;7101;51.600;7.310;2023-03-14T13:25:32;7.20;1.00
14053;DHT22;7101;51.600;7.310;2023-03-14T13:28:01;7.40;1.00
14053;DHT22;7101;51.600;7.310;2023-03-14T13:30:38;7.40;1.00
14053;DHT22;7101;51.600;7.310;2023-03-14T13:33:14;7.30;1.00
14053;DHT22;7101;51.600;7.310;2023-03-14T13:35:43;7.20;1.00
14053;DHT22;7101;51.600;7.310;2023-03-14T13:38:18;7.40;1.00
14053;DHT22;7101;51.600;7.310;2023-03-14T13:40:47;7.40;1.00
14053;DHT22;7101;51.600;7.310;2023-03-14T13:43:19;7.40;1.00
14053;DHT22;7101;51.600;7.310;2023-03-14T13:45:52;7.40;1.00
14053;DHT22;7101;51.600;7.310;2023-03-14T13:48:20;7.40;1.00
14053;DHT22;7101;51.600;7.310;2023-03-14T13:50:53;7.60;1.00
14053;DHT22;7101;51.600;7.310;2023-03-14T13:53:24;7.70;1.00
14053;DHT22;7101;51.600;7.310;2023-03-14T13:55:54;8.10;1.00
14053;DHT22;7101;51.600;7.310;2023-03-14T13:58:23;8.10;1.00
14053;DHT22;7101;51.600;7.310;2023-03-14T14:01:03;8.20;1.00
14053;DHT22;7101;51.600;7.310;2023-03-14T14:03:36;8.30;1.00
14053;DHT22;7101;51.600;7.310;2023-03-14T14:06:07;8.20;1.00
14053;DHT22;7101;51.600;7.310;2023-03-14T14:08:40;8.20;99.90
14053;DHT22;7101;51.600;7.310;2023-03-14T14:11:19;8.40;1.00
14053;DHT22;7101;51.600;7.310;2023-03-14T14:13:48;8.30;99.90
14053;DHT22;7101;51.600;7.310;2023-03-14T14:16:16;8.30;99.90
14053;DHT22;7101;51.600;7.310;2023-03-14T14:18:48;8.40;1.00
14053;DHT22;7101;51.600;7.310;2023-03-14T14:21:15;8.30;1.00
14053;DHT22;7101;51.600;7.310;2023-03-14T14:23:43;8.30;1.00
14053;DHT22;7101;51.600;7.310;2023-03-14T14:26:16;8.30;1.00
14053;DHT22;7101;51.600;7.310;2023-03-14T14:28:44;8.30;1.00
14053;DHT22;7101;51.600;7.310;2023-03-14T14:31:20;8.10;99.90
14053;DHT22;7101;51.600;7.310;2023-03-14T14:33:54;8.00;1.00
14053;DHT22;7101;51.600;7.310;2023-03-14T14:36:23;8.10;99.90
14053;DHT22;7101;51.600;7.310;2023-03-14T14:38:54;8.30;99.90
14053;DHT22;7101;51.600;7.310;2023-03-14T14:41:27;8.40;99.90
14053;DHT22;7101;51.600;7.310;2023-03-14T14:43:55;8.30;93.40
14053;DHT22;7101;51.600;7.310;2023-03-14T14:46:22;8.30;99.90
14053;DHT22;7101;51.600;7.310;2023-03-14T14:49:01;8.30;1.00
14053;DHT22;7101;51.600;7.310;2023-03-14T14:51:34;8.30;1.00
14053;DHT22;7101;51.600;7.310;2023-03-14T14:54:15;8.40;99.90
14053;DHT22;7101;51.600;7.310;2023-03-14T14:56:47;8.40;1.00
14053;DHT22;7101;51.600;7.310;2023-03-14T14:59:21;8.50;1.00
14053;DHT22;7101;51.600;7.310;2023-03-14T15:01:48;8.60;1.00
14053;DHT22;7101;51.600;7.310;2023-03-14T15:04:16;8.50;99.90
14053;DHT22;7101;51.600;7.310;2023-03-14T15:06:45;8.40;1.00
14053;DHT22;7101;51.600;7.310;2023-03-14T15:09:15;8.40;1.00
14053;DHT22;7101;51.600;7.310;2023-03-14T15:11:43;8.70;1.00
14053;DHT22;7101;51.600;7.310;2023-03-14T15:14:10;9.00;1.00
14053;DHT22;7101;51.600;7.310;2023-03-14T15:16:38;9.00;1.00
14053;DHT22;7101;51.600;7.310;2023-03-14T15:19:10;9.10;99.90
14053;DHT22;7101;51.600;7.310;2023-03-14T15:21:41;8.90;1.00
14053;DHT22;7101;51.600;7.310;2023-03-14T15:24:10;8.80;1.00
14053;DHT22;7101;51.600;7.310;2023-03-14T15:26:39;8.70;1.00
14053;DHT22;7101;51.600;7.310;2023-03-14T15:29:08;8.40;1.00
14053;DHT22;7101;51.600;7.310;2023-03-14T15:31:38;8.20;1.00
14053;DHT22;7101;51.600;7.310;2023-03-14T15:34:04;8.10;1.00
14053;DHT22;7101;51.600;7.310;2023-03-14T15:36:33;8.20;1.00
14053;DHT22;7101;51.600;7.310;2023-03-14T15:39:01;8.30;1.00
14053;DHT22;7101;51.600;7.310;2023-03-14T15:41:29;8.20;99.90
14053;DHT22;7101;51.600;7.310;2023-03-14T15:43:58;8.20;99.90
14053;DHT22;7101;51.600;7.310;2023-03-14T15:46:25;8.10;1.00
14053;DHT22;7101;51.600;7.310;2023-03-14T15:48:52;7.90;99.90
14053;DHT22;7101;51.600;7.310;2023-03-14T15:51:19;7.60;99.90
14053;DHT22;7101;51.600;7.310;2023-03-14T15:53:47;7.60;1.00
14053;DHT22;7101;51.600;7.310;2023-03-14T15:56:16;7.50;1.00
14053;DHT22;7101;51.600;7.310;2023-03-14T15:58:44;7.70;99.90
14053;DHT22;7101;51.600;7.310;2023-03-14T16:01:14;7.70;98.40
14053;DHT22;7101;51.600;7.310;2023-03-14T16:03:44;7.70;99.90
14053;DHT22;7101;51.600;7.310;2023-03-14T16:06:23;7.40;1.00
14053;DHT22;7101;51.600;7.310;2023-03-14T16:08:50;7.40;1.00
14053;DHT22;7101;51.600;7.310;2023-03-14T16:11:17;7.30;1.00
14053;DHT22;7101;51.600;7.310;2023-03-14T16:13:44;7.30;99.90
14053;DHT22;7101;51.600;7.310;2023-03-14T16:16:13;7.30;99.90
14053;DHT22;7101;51.600;7.310;2023-03-14T16:18:41;7.40;99.90
14053;DHT22;7101;51.600;7.310;2023-03-14T16:21:11;7.40;1.00
14053;DHT22;7101;51.600;7.310;2023-03-14T16:23:39;7.30;99.90
14053;DHT22;7101;51.600;7.310;2023-03-14T16:26:08;7.20;1.00